createdAt,value
2018-07-07T00:00:24.789Z,13.93
2018-07-07T00:02:52.885Z,13.93
2018-07-07T00:05:20.971Z,13.81
2018-07-07T00:07:49.068Z,13.90
2018-07-07T00:10:17.345Z,13.92
2018-07-07T00:12:45.753Z,13.92
2018-07-07T00:15:16.060Z,13.91
2018-07-07T00:17:44.660Z,13.86
2018-07-07T00:20:12.846Z,13.81
2018-07-07T00:22:40.955Z,13.81
2018-07-07T00:25:13.059Z,13.81
2018-07-07T00:27:41.170Z,13.85
2018-07-07T00:30:09.265Z,13.85
2018-07-07T00:32:37.356Z,13.92
2018-07-07T00:35:05.447Z,13.91
2018-07-07T00:37:33.509Z,13.93
2018-07-07T00:40:01.612Z,13.87
2018-07-07T00:42:29.825Z,13.85
2018-07-07T00:44:57.960Z,13.90
2018-07-07T00:47:26.054Z,13.98
2018-07-07T00:49:54.120Z,13.92
2018-07-07T00:52:22.234Z,13.89
2018-07-07T00:54:50.344Z,13.87
2018-07-07T00:57:18.447Z,13.88
2018-07-07T00:59:46.556Z,13.83
2018-07-07T01:02:18.663Z,13.81
2018-07-07T01:04:47.442Z,13.88
2018-07-07T01:07:15.535Z,13.79
2018-07-07T01:09:43.655Z,13.91
2018-07-07T01:12:11.739Z,13.87
2018-07-07T01:14:39.885Z,13.85
2018-07-07T01:17:07.997Z,13.82
2018-07-07T01:19:36.191Z,13.85
2018-07-07T01:22:06.067Z,13.96
2018-07-07T01:24:34.161Z,13.89
2018-07-07T01:27:02.233Z,13.87
2018-07-07T01:29:30.336Z,13.88
2018-07-07T01:31:58.438Z,13.88
2018-07-07T01:34:26.561Z,13.85
2018-07-07T01:36:54.660Z,13.93
2018-07-07T01:39:22.807Z,13.93
2018-07-07T01:41:50.939Z,13.81
2018-07-07T01:44:19.071Z,13.83
2018-07-07T01:46:47.161Z,13.88
2018-07-07T01:49:15.260Z,13.88
2018-07-07T01:51:43.342Z,13.78
2018-07-07T01:54:11.439Z,13.78
2018-07-07T01:56:39.504Z,13.79
2018-07-07T01:59:07.680Z,13.78
2018-07-07T02:01:36.629Z,13.81
2018-07-07T02:04:04.724Z,13.81
2018-07-07T02:06:33.089Z,13.79
2018-07-07T02:09:01.296Z,13.77
2018-07-07T02:11:29.411Z,13.78
2018-07-07T02:13:57.524Z,13.75
2018-07-07T02:16:25.618Z,13.71
2018-07-07T02:18:53.802Z,13.75
2018-07-07T02:21:21.880Z,13.78
2018-07-07T02:23:50.012Z,13.81
2018-07-07T02:26:18.147Z,13.82
2018-07-07T02:28:46.264Z,13.88
2018-07-07T02:31:14.396Z,13.89
2018-07-07T02:33:42.476Z,13.84
2018-07-07T02:36:10.596Z,13.78
2018-07-07T02:38:38.697Z,13.78
2018-07-07T02:41:06.800Z,13.74
2018-07-07T02:43:34.887Z,13.75
2018-07-07T02:46:02.965Z,13.70
2018-07-07T02:48:31.085Z,13.73
2018-07-07T02:50:59.147Z,13.69
2018-07-07T02:53:27.292Z,13.74
2018-07-07T02:55:55.403Z,13.75
2018-07-07T02:58:23.490Z,13.73
2018-07-07T03:00:51.606Z,13.76
2018-07-07T03:03:19.797Z,13.77
2018-07-07T03:05:47.847Z,13.79
2018-07-07T03:08:15.938Z,13.73
2018-07-07T03:10:44.022Z,13.76
2018-07-07T03:13:12.136Z,13.70
2018-07-07T03:15:40.225Z,13.83
2018-07-07T03:18:08.304Z,13.81
2018-07-07T03:20:36.421Z,13.80
2018-07-07T03:23:04.536Z,13.83
2018-07-07T03:25:32.630Z,13.89
2018-07-07T03:28:00.758Z,13.82
2018-07-07T03:30:28.857Z,13.81
2018-07-07T03:32:56.998Z,13.90
2018-07-07T03:35:25.081Z,13.91
2018-07-07T03:37:53.198Z,13.91
2018-07-07T03:40:21.290Z,13.86
2018-07-07T03:42:49.388Z,13.85
2018-07-07T03:45:17.491Z,13.88
2018-07-07T03:47:45.595Z,13.89
2018-07-07T03:50:13.729Z,13.88
2018-07-07T03:52:41.842Z,13.80
2018-07-07T03:55:09.967Z,13.86
2018-07-07T03:57:38.096Z,13.88
2018-07-07T04:00:06.215Z,13.87
2018-07-07T04:02:34.308Z,13.85
2018-07-07T04:05:02.382Z,13.81
2018-07-07T04:07:30.454Z,13.76
2018-07-07T04:09:58.546Z,13.80
2018-07-07T04:12:26.693Z,13.83
2018-07-07T04:14:54.816Z,13.82
2018-07-07T04:17:22.870Z,13.83
2018-07-07T04:19:50.991Z,13.89
2018-07-07T04:22:19.140Z,13.96
2018-07-07T04:24:47.222Z,14.03
2018-07-07T04:27:15.350Z,14.13
2018-07-07T04:29:43.460Z,14.13
2018-07-07T04:32:11.590Z,14.06
2018-07-07T04:34:39.715Z,14.15
2018-07-07T04:37:07.780Z,14.20
2018-07-07T04:39:35.876Z,14.33
2018-07-07T04:42:04.014Z,14.80
2018-07-07T04:44:32.150Z,15.60
2018-07-07T04:47:00.237Z,16.38
2018-07-07T04:49:28.410Z,16.26
2018-07-07T04:51:56.529Z,15.65
2018-07-07T04:54:24.629Z,15.63
2018-07-07T04:56:52.732Z,15.69
2018-07-07T04:59:20.829Z,15.81
2018-07-07T05:01:48.925Z,15.82
2018-07-07T05:04:17.037Z,16.43
2018-07-07T05:06:45.139Z,16.43
2018-07-07T05:09:13.341Z,16.93
2018-07-07T05:11:41.455Z,19.04
2018-07-07T05:14:09.588Z,20.59
2018-07-07T05:16:37.669Z,21.23
2018-07-07T05:19:05.801Z,21.49
2018-07-07T05:21:33.883Z,21.66
2018-07-07T05:24:01.965Z,21.25
2018-07-07T05:26:30.113Z,22.58
2018-07-07T05:28:58.202Z,23.24
2018-07-07T05:31:26.304Z,22.10
2018-07-07T05:33:54.445Z,22.10
2018-07-07T05:36:22.562Z,22.33
2018-07-07T05:38:50.704Z,22.88
2018-07-07T05:41:18.850Z,23.64
2018-07-07T05:43:46.965Z,23.34
2018-07-07T05:46:15.076Z,23.63
2018-07-07T05:48:43.155Z,22.85
2018-07-07T05:51:11.266Z,23.04
2018-07-07T05:53:39.451Z,22.80
2018-07-07T05:56:07.551Z,23.04
2018-07-07T05:58:35.650Z,23.44
2018-07-07T06:01:03.730Z,23.07
2018-07-07T06:03:31.831Z,22.88
2018-07-07T06:05:59.902Z,21.99
2018-07-07T06:08:28.142Z,23.22
2018-07-07T06:10:56.284Z,23.02
2018-07-07T06:13:24.376Z,23.44
2018-07-07T06:15:52.487Z,23.39
2018-07-07T06:18:20.693Z,23.71
2018-07-07T06:20:48.807Z,23.13
2018-07-07T06:23:16.933Z,21.99
2018-07-07T06:25:45.066Z,23.04
2018-07-07T06:28:13.176Z,23.27
2018-07-07T06:30:41.295Z,23.63
2018-07-07T06:33:09.397Z,24.10
2018-07-07T06:35:37.507Z,23.66
2018-07-07T06:38:06.172Z,24.40
2018-07-07T06:40:34.323Z,24.25
2018-07-07T06:43:02.478Z,24.18
2018-07-07T06:45:30.604Z,24.43
2018-07-07T06:47:58.707Z,25.69
2018-07-07T06:50:26.880Z,25.61
2018-07-07T06:52:55.092Z,26.09
2018-07-07T06:55:23.191Z,26.17
2018-07-07T06:57:51.329Z,25.46
2018-07-07T07:00:19.444Z,25.15
2018-07-07T07:02:47.586Z,25.28
2018-07-07T07:05:15.710Z,24.93
2018-07-07T07:07:43.855Z,24.73
2018-07-07T07:10:11.976Z,25.44
2018-07-07T07:12:40.121Z,26.26
2018-07-07T07:15:08.221Z,25.54
2018-07-07T07:17:36.394Z,26.72
2018-07-07T07:20:04.542Z,25.48
2018-07-07T07:22:32.684Z,24.34
2018-07-07T07:25:00.916Z,25.72
2018-07-07T07:27:29.556Z,26.08
2018-07-07T07:29:57.670Z,26.30
2018-07-07T07:32:25.778Z,26.33
2018-07-07T07:34:54.840Z,25.41
2018-07-07T07:37:23.033Z,25.85
2018-07-07T07:39:51.120Z,26.14
2018-07-07T07:42:19.232Z,25.19
2018-07-07T07:44:47.375Z,25.50
2018-07-07T07:47:15.636Z,25.61
2018-07-07T07:49:43.760Z,25.19
2018-07-07T07:52:11.891Z,24.54
2018-07-07T07:54:40.033Z,24.00
2018-07-07T07:57:08.167Z,24.53
2018-07-07T07:59:36.290Z,24.86
2018-07-07T08:02:04.419Z,25.54
2018-07-07T08:04:32.547Z,24.82
2018-07-07T08:07:00.675Z,25.33
2018-07-07T08:09:28.846Z,26.19
2018-07-07T08:11:56.963Z,26.26
2018-07-07T08:14:25.134Z,25.95
2018-07-07T08:16:53.288Z,25.63
2018-07-07T08:19:21.430Z,24.87
2018-07-07T08:21:49.571Z,25.40
2018-07-07T08:24:17.760Z,24.84
2018-07-07T08:26:45.884Z,25.03
2018-07-07T08:29:14.015Z,24.92
2018-07-07T08:31:42.136Z,25.35
2018-07-07T08:34:10.269Z,25.20
2018-07-07T08:36:38.432Z,25.74
2018-07-07T08:39:06.619Z,25.73
2018-07-07T08:41:34.768Z,25.18
2018-07-07T08:44:02.887Z,24.66
2018-07-07T08:46:31.031Z,24.84
2018-07-07T08:48:59.116Z,24.73
2018-07-07T08:51:27.209Z,25.44
2018-07-07T08:53:55.316Z,25.30
2018-07-07T08:56:23.441Z,25.58
2018-07-07T08:58:51.542Z,25.66
2018-07-07T09:01:19.636Z,24.83
2018-07-07T09:03:47.784Z,24.60
2018-07-07T09:06:15.887Z,24.63
2018-07-07T09:08:44.044Z,24.77
2018-07-07T09:11:12.425Z,24.77
2018-07-07T09:13:40.504Z,25.18
2018-07-07T09:16:08.600Z,23.96
2018-07-07T09:18:36.680Z,25.00
2018-07-07T09:21:04.812Z,24.85
2018-07-07T09:23:32.905Z,24.48
2018-07-07T09:26:00.998Z,24.43
2018-07-07T09:28:29.066Z,24.56
2018-07-07T09:30:57.187Z,24.16
2018-07-07T09:33:25.316Z,24.25
2018-07-07T09:35:53.436Z,24.22
2018-07-07T09:38:21.536Z,23.58
2018-07-07T09:40:49.631Z,23.91
2018-07-07T09:43:17.777Z,23.80
2018-07-07T09:45:45.923Z,24.06
2018-07-07T09:48:14.055Z,24.35
2018-07-07T09:50:42.129Z,24.08
2018-07-07T09:53:10.292Z,23.97
2018-07-07T09:55:38.388Z,23.97
2018-07-07T09:58:06.533Z,23.95
2018-07-07T10:00:40.520Z,23.69
2018-07-07T10:03:08.701Z,23.78
2018-07-07T10:05:37.115Z,23.39
2018-07-07T10:08:05.445Z,23.27
2018-07-07T10:10:33.962Z,22.94
2018-07-07T10:13:02.176Z,23.02
2018-07-07T10:15:30.352Z,23.16
2018-07-07T10:17:58.466Z,23.04
2018-07-07T10:20:26.782Z,22.96
2018-07-07T10:22:54.883Z,23.29
2018-07-07T10:25:23.004Z,23.49
2018-07-07T10:27:52.223Z,23.14
2018-07-07T10:30:20.442Z,23.31
2018-07-07T10:32:48.645Z,23.32
2018-07-07T10:35:16.753Z,23.16
2018-07-07T10:37:44.857Z,23.20
2018-07-07T10:40:12.984Z,23.27
2018-07-07T10:42:41.108Z,23.09
2018-07-07T10:45:09.254Z,23.17
2018-07-07T10:47:37.368Z,23.35
2018-07-07T10:50:05.470Z,23.29
2018-07-07T10:52:33.582Z,23.22
2018-07-07T10:55:01.738Z,23.25
2018-07-07T10:57:29.821Z,22.98
2018-07-07T10:59:58.064Z,23.06
2018-07-07T11:02:26.151Z,23.12
2018-07-07T11:04:54.272Z,23.27
2018-07-07T11:07:22.351Z,23.31
2018-07-07T11:09:50.428Z,23.36
2018-07-07T11:12:18.532Z,23.29
2018-07-07T11:14:46.718Z,23.22
2018-07-07T11:17:14.891Z,22.86
2018-07-07T11:19:42.982Z,22.63
2018-07-07T11:22:11.116Z,22.68
2018-07-07T11:24:40.167Z,22.89
2018-07-07T11:27:08.600Z,23.32
2018-07-07T11:29:36.696Z,23.22
2018-07-07T11:32:04.766Z,23.42
2018-07-07T11:34:32.928Z,23.28
2018-07-07T11:37:01.148Z,23.12
2018-07-07T11:39:29.197Z,23.28
2018-07-07T11:41:57.323Z,23.01
2018-07-07T11:44:25.420Z,22.94
2018-07-07T11:46:53.571Z,22.95
2018-07-07T11:49:21.682Z,22.98
2018-07-07T11:51:49.797Z,23.12
2018-07-07T11:54:17.952Z,23.18
2018-07-07T11:56:46.020Z,23.43
2018-07-07T11:59:14.092Z,23.30
2018-07-07T12:01:42.240Z,23.24
2018-07-07T12:04:10.315Z,22.87
2018-07-07T12:06:38.479Z,22.77
2018-07-07T12:09:07.150Z,23.02
2018-07-07T12:11:35.310Z,23.26
2018-07-07T12:14:03.441Z,23.54
2018-07-07T12:16:31.513Z,23.79
2018-07-07T12:18:59.638Z,23.70
2018-07-07T12:21:27.720Z,23.75
2018-07-07T12:23:55.821Z,23.72
2018-07-07T12:26:23.921Z,23.57
2018-07-07T12:28:52.368Z,23.22
2018-07-07T12:31:20.563Z,22.93
2018-07-07T12:33:48.682Z,22.97
2018-07-07T12:36:16.818Z,22.96
2018-07-07T12:38:44.955Z,22.80
2018-07-07T12:41:13.073Z,23.11
2018-07-07T12:43:41.217Z,23.12
2018-07-07T12:46:09.316Z,23.20
2018-07-07T12:48:37.497Z,23.19
2018-07-07T12:51:05.682Z,23.49
2018-07-07T12:53:33.813Z,23.24
2018-07-07T12:56:01.990Z,22.64
2018-07-07T12:58:30.081Z,22.73
2018-07-07T13:00:58.188Z,22.96
2018-07-07T13:03:26.281Z,23.20
2018-07-07T13:05:54.400Z,23.25
2018-07-07T13:08:22.486Z,23.25
2018-07-07T13:10:50.568Z,23.43
2018-07-07T13:13:18.676Z,23.64
2018-07-07T13:15:46.786Z,23.55
2018-07-07T13:18:14.872Z,23.70
2018-07-07T13:20:42.995Z,23.33
2018-07-07T13:23:11.077Z,23.48
2018-07-07T13:25:39.193Z,23.32
2018-07-07T13:28:07.271Z,23.24
2018-07-07T13:30:35.379Z,23.37
2018-07-07T13:33:03.494Z,23.47
2018-07-07T13:35:31.613Z,23.39
2018-07-07T13:37:59.724Z,23.66
2018-07-07T13:40:27.824Z,23.57
2018-07-07T13:42:55.929Z,23.43
2018-07-07T13:45:24.080Z,23.55
2018-07-07T13:47:52.157Z,23.47
2018-07-07T13:50:20.303Z,23.75
2018-07-07T13:52:48.452Z,23.87
2018-07-07T13:55:16.544Z,23.75
2018-07-07T13:57:44.636Z,23.91
2018-07-07T14:00:12.724Z,23.77
2018-07-07T14:02:40.859Z,23.67
2018-07-07T14:05:09.244Z,23.68
2018-07-07T14:07:37.342Z,23.50
2018-07-07T14:10:05.725Z,23.40
2018-07-07T14:12:33.860Z,23.27
2018-07-07T14:15:02.062Z,23.43
2018-07-07T14:17:30.211Z,23.40
2018-07-07T14:19:58.286Z,23.18
2018-07-07T14:22:27.230Z,23.05
2018-07-07T14:24:55.335Z,23.16
2018-07-07T14:27:23.981Z,23.02
2018-07-07T14:29:52.106Z,22.82
2018-07-07T14:32:20.204Z,23.31
2018-07-07T14:34:48.324Z,23.17
2018-07-07T14:37:16.424Z,23.01
2018-07-07T14:39:56.231Z,22.99
2018-07-07T14:42:35.068Z,23.18
2018-07-07T14:45:08.268Z,23.19
2018-07-07T14:47:36.322Z,23.19
2018-07-07T14:50:04.430Z,23.07
2018-07-07T14:52:32.513Z,22.89
2018-07-07T14:55:00.629Z,22.52
2018-07-07T14:57:28.782Z,22.71
2018-07-07T14:59:56.876Z,22.41
2018-07-07T15:02:25.051Z,22.38
2018-07-07T15:04:53.160Z,22.36
2018-07-07T15:07:21.272Z,22.40
2018-07-07T15:09:49.399Z,22.51
2018-07-07T15:12:17.512Z,22.71
2018-07-07T15:14:45.641Z,22.51
2018-07-07T15:17:13.718Z,22.52
2018-07-07T15:19:42.731Z,22.49
2018-07-07T15:22:10.911Z,22.33
2018-07-07T15:24:39.206Z,22.23
2018-07-07T15:27:07.314Z,22.37
2018-07-07T15:29:35.550Z,22.29
2018-07-07T15:32:03.756Z,22.28
2018-07-07T15:34:31.885Z,22.25
2018-07-07T15:37:00.038Z,22.31
2018-07-07T15:39:28.192Z,22.11
2018-07-07T15:41:56.358Z,21.83
2018-07-07T15:44:24.442Z,21.78
2018-07-07T15:46:52.790Z,21.65
2018-07-07T15:49:20.944Z,21.54
2018-07-07T15:51:49.038Z,21.39
2018-07-07T15:54:17.165Z,21.39
2018-07-07T15:56:45.293Z,21.40
2018-07-07T15:59:13.376Z,21.26
2018-07-07T16:01:41.480Z,21.02
2018-07-07T16:04:09.607Z,21.20
2018-07-07T16:06:37.754Z,21.18
2018-07-07T16:09:06.679Z,21.10
2018-07-07T16:11:35.038Z,20.82
2018-07-07T16:14:03.165Z,20.82
2018-07-07T16:16:31.302Z,20.83
2018-07-07T16:18:59.462Z,20.88
2018-07-07T16:21:27.586Z,20.89
2018-07-07T16:23:55.709Z,20.86
2018-07-07T16:26:23.844Z,20.85
2018-07-07T16:28:52.288Z,20.74
2018-07-07T16:31:20.425Z,20.74
2018-07-07T16:33:48.523Z,20.67
2018-07-07T16:36:16.666Z,20.72
2018-07-07T16:38:44.826Z,20.72
2018-07-07T16:41:12.931Z,20.68
2018-07-07T16:43:41.303Z,20.67
2018-07-07T16:46:09.574Z,20.62
2018-07-07T16:48:37.688Z,20.61
2018-07-07T16:51:05.940Z,20.47
2018-07-07T16:53:34.302Z,20.45
2018-07-07T16:56:02.520Z,20.41
2018-07-07T16:58:30.658Z,20.48
2018-07-07T17:00:58.875Z,20.42
2018-07-07T17:03:27.015Z,20.34
2018-07-07T17:05:55.139Z,20.14
2018-07-07T17:08:23.225Z,20.13
2018-07-07T17:10:51.352Z,20.17
2018-07-07T17:13:19.455Z,20.16
2018-07-07T17:15:47.601Z,20.12
2018-07-07T17:18:15.742Z,20.07
2018-07-07T17:20:43.888Z,19.84
2018-07-07T17:23:11.964Z,19.56
2018-07-07T17:25:40.236Z,19.64
2018-07-07T17:28:08.492Z,19.55
2018-07-07T17:30:36.605Z,19.53
2018-07-07T17:33:04.702Z,19.55
2018-07-07T17:35:33.057Z,19.51
2018-07-07T17:38:01.208Z,19.45
2018-07-07T17:40:29.341Z,19.41
2018-07-07T17:42:57.454Z,19.32
2018-07-07T17:45:25.577Z,19.26
2018-07-07T17:47:53.907Z,19.17
2018-07-07T17:50:22.007Z,19.18
2018-07-07T17:52:50.170Z,19.22
2018-07-07T17:55:18.277Z,19.22
2018-07-07T17:57:46.399Z,19.20
2018-07-07T18:00:14.606Z,19.11
2018-07-07T18:02:42.721Z,19.10
2018-07-07T18:05:10.817Z,19.12
2018-07-07T18:07:38.910Z,19.08
2018-07-07T18:10:07.030Z,18.90
2018-07-07T18:12:35.235Z,18.88
2018-07-07T18:15:03.369Z,18.86
2018-07-07T18:17:31.468Z,18.76
2018-07-07T18:19:59.600Z,18.72
2018-07-07T18:22:27.697Z,18.67
2018-07-07T18:24:55.799Z,18.63
2018-07-07T18:27:23.960Z,18.56
2018-07-07T18:29:52.043Z,18.55
2018-07-07T18:32:20.138Z,18.49
2018-07-07T18:34:48.226Z,18.42
2018-07-07T18:37:16.337Z,18.27
2018-07-07T18:39:44.453Z,18.38
2018-07-07T18:42:12.540Z,18.21
2018-07-07T18:44:40.692Z,18.16
2018-07-07T18:47:08.782Z,18.14
2018-07-07T18:49:38.193Z,18.14
2018-07-07T18:52:06.383Z,17.98
2018-07-07T18:54:34.549Z,17.98
2018-07-07T18:57:02.649Z,17.89
2018-07-07T18:59:30.719Z,17.94
2018-07-07T19:01:58.841Z,17.88
2018-07-07T19:04:26.922Z,17.79
2018-07-07T19:06:55.076Z,17.74
2018-07-07T19:09:23.208Z,17.72
2018-07-07T19:11:51.300Z,17.69
2018-07-07T19:14:19.472Z,17.54
2018-07-07T19:16:47.572Z,17.48
2018-07-07T19:19:15.738Z,17.47
2018-07-07T19:21:49.099Z,17.41
2018-07-07T19:24:22.524Z,17.21
2018-07-07T19:26:52.067Z,17.20
2018-07-07T19:29:21.068Z,17.24
2018-07-07T19:31:54.616Z,17.21
2018-07-07T19:34:27.987Z,17.16
2018-07-07T19:37:01.404Z,17.06
2018-07-07T19:39:29.490Z,17.02
2018-07-07T19:41:58.123Z,17.03
2018-07-07T19:44:26.246Z,16.99
2018-07-07T19:46:55.216Z,16.89
2018-07-07T19:49:23.314Z,16.86
2018-07-07T19:51:51.469Z,16.79
2018-07-07T19:54:19.600Z,16.75
2018-07-07T19:56:47.709Z,16.74
2018-07-07T19:59:15.832Z,16.63
2018-07-07T20:01:43.933Z,16.64
2018-07-07T20:04:12.031Z,16.66
2018-07-07T20:06:40.131Z,16.57
2018-07-07T20:09:08.453Z,16.62
2018-07-07T20:11:36.549Z,16.47
2018-07-07T20:14:04.650Z,16.41
2018-07-07T20:16:40.860Z,16.34
2018-07-07T20:19:17.592Z,16.31
2018-07-07T20:21:53.974Z,16.29
2018-07-07T20:24:23.405Z,16.35
2018-07-07T20:26:56.940Z,16.30
2018-07-07T20:29:25.054Z,16.36
2018-07-07T20:31:54.563Z,16.26
2018-07-07T20:34:25.707Z,16.17
2018-07-07T20:36:54.201Z,16.04
2018-07-07T20:39:22.492Z,15.96
2018-07-07T20:41:51.164Z,15.99
2018-07-07T20:44:19.661Z,15.98
2018-07-07T20:46:48.145Z,15.97
2018-07-07T20:49:16.260Z,15.78
2018-07-07T20:51:44.395Z,15.71
2018-07-07T20:54:12.504Z,15.77
2018-07-07T20:56:40.639Z,15.79
2018-07-07T20:59:08.751Z,15.78
2018-07-07T21:01:36.865Z,15.74
2018-07-07T21:04:04.995Z,15.54
2018-07-07T21:06:33.891Z,15.69
2018-07-07T21:09:02.050Z,15.69
2018-07-07T21:11:30.201Z,15.70
2018-07-07T21:13:58.348Z,15.67
2018-07-07T21:16:26.470Z,15.59
2018-07-07T21:18:55.103Z,15.50
2018-07-07T21:21:23.459Z,15.48
2018-07-07T21:23:51.551Z,15.45
2018-07-07T21:26:19.733Z,15.38
2018-07-07T21:28:47.845Z,15.32
2018-07-07T21:31:15.960Z,15.26
2018-07-07T21:33:44.102Z,15.17
2018-07-07T21:36:12.247Z,15.24
2018-07-07T21:38:40.391Z,15.21
2018-07-07T21:41:08.513Z,15.21
2018-07-07T21:43:36.619Z,15.07
2018-07-07T21:46:04.768Z,15.12
2018-07-07T21:48:32.901Z,15.10
2018-07-07T21:51:01.011Z,15.02
2018-07-07T21:53:29.416Z,14.97
2018-07-07T21:55:57.498Z,14.92
2018-07-07T21:58:27.190Z,15.01
2018-07-07T22:01:10.957Z,14.99
2018-07-07T22:03:44.836Z,15.01
2018-07-07T22:06:13.939Z,15.04
2018-07-07T22:08:42.017Z,14.99
2018-07-07T22:11:10.120Z,14.92
2018-07-07T22:13:38.279Z,14.92
2018-07-07T22:16:06.423Z,14.84
2018-07-07T22:18:34.566Z,14.80
2018-07-07T22:21:14.126Z,14.78
2018-07-07T22:23:42.259Z,14.68
2018-07-07T22:26:10.396Z,14.69
2018-07-07T22:28:38.493Z,14.65
2018-07-07T22:31:06.637Z,14.57
2018-07-07T22:33:34.770Z,14.58
2018-07-07T22:36:08.259Z,14.58
2018-07-07T22:38:41.752Z,14.53
2018-07-07T22:41:09.832Z,14.59
2018-07-07T22:43:37.962Z,14.58
2018-07-07T22:46:06.166Z,14.53
2018-07-07T22:48:34.256Z,14.45
2018-07-07T22:51:02.380Z,14.39
2018-07-07T22:53:30.509Z,14.36
2018-07-07T22:55:58.658Z,14.40
2018-07-07T22:58:26.792Z,14.42
2018-07-07T23:00:54.917Z,14.36
2018-07-07T23:03:23.040Z,14.37
2018-07-07T23:05:51.155Z,14.31
2018-07-07T23:08:19.338Z,14.32
2018-07-07T23:10:47.392Z,14.24
2018-07-07T23:13:15.503Z,14.30
2018-07-07T23:15:43.611Z,14.21
2018-07-07T23:18:11.690Z,14.16
2018-07-07T23:20:39.753Z,14.20
2018-07-07T23:23:07.840Z,14.25
2018-07-07T23:25:35.980Z,14.30
2018-07-07T23:28:04.076Z,14.30
2018-07-07T23:30:32.191Z,14.26
2018-07-07T23:33:00.301Z,14.37
2018-07-07T23:35:28.400Z,14.41
2018-07-07T23:37:56.466Z,14.24
2018-07-07T23:40:24.555Z,14.28
2018-07-07T23:42:52.641Z,14.27
2018-07-07T23:45:20.756Z,14.26
2018-07-07T23:47:48.833Z,14.25
2018-07-07T23:50:16.903Z,14.17
2018-07-07T23:52:45.019Z,14.25
2018-07-07T23:55:13.137Z,14.27
2018-07-07T23:57:41.234Z,14.19
